Time;durP1;ratioP1;P1;durP2;ratioP2;P2;SDS_P1;SDS_P2;PMS_P1;PMS_P2;Temp;Humidity;BMP_temperature;BMP_pressure;BME280_temperature;BME280_humidity;BME280_pressure;Samples;Min_cycle;Max_cycle;Signal;HPM_P1;HPM_P2
2022/07/16 00:03:15;;;;;;;4.22;0.68;;;;;;;32.34;28.84;101083.94;4854753;29;20056;-77
2022/07/16 00:05:44;;;;;;;1.98;0.60;;;;;;;32.17;27.60;101092.03;4859384;29;20178;-77
2022/07/16 00:08:13;;;;;;;1.30;0.40;;;;;;;31.97;28.70;101092.28;4855184;29;20057;-78
2022/07/16 00:10:55;;;;;;;2.90;0.55;;;;;;;31.72;27.98;101082.88;4864014;29;20057;-82
2022/07/16 00:13:24;;;;;;;2.20;0.75;;;;;;;31.58;28.97;101074.72;4875057;29;20120;-75
2022/07/16 00:15:58;;;;;;;1.42;0.40;;;;;;;31.64;28.58;101085.09;4883262;29;20858;-75
2022/07/16 00:21:14;;;;;;;3.40;0.35;;;;;;;31.75;28.37;101079.16;4888420;29;20414;-76
2022/07/16 00:23:43;;;;;;;1.35;0.35;;;;;;;31.69;28.55;101073.19;4879323;29;20053;-77
2022/07/16 00:26:12;;;;;;;2.55;0.60;;;;;;;31.75;28.61;101072.00;4864922;29;20048;-76
2022/07/16 00:28:40;;;;;;;1.13;0.50;;;;;;;31.81;29.04;101079.69;4870548;29;20518;-76
2022/07/16 00:31:09;;;;;;;1.33;0.40;;;;;;;31.82;28.67;101078.75;4869914;29;20052;-76
2022/07/16 00:33:39;;;;;;;1.48;0.50;;;;;;;31.84;28.69;101082.22;4871916;29;20063;-76
2022/07/16 00:36:08;;;;;;;1.00;0.35;;;;;;;31.85;28.11;101075.91;4870205;29;20053;-76
2022/07/16 00:38:37;;;;;;;1.08;0.50;;;;;;;31.89;28.35;101080.16;4868493;29;20067;-76
2022/07/16 00:41:16;;;;;;;1.02;0.40;;;;;;;31.81;28.28;101076.16;4866521;29;20049;-76
2022/07/16 00:43:49;;;;;;;1.38;0.40;;;;;;;31.74;28.66;101070.28;4871843;29;20132;-77
2022/07/16 00:46:18;;;;;;;5.13;0.40;;;;;;;31.63;28.39;101069.97;4868327;29;20110;-76
2022/07/16 00:48:48;;;;;;;0.70;0.40;;;;;;;31.36;29.25;101070.50;4864184;29;20530;-77
2022/07/16 00:51:18;;;;;;;1.55;0.60;;;;;;;31.36;30.17;101065.16;4869021;29;20160;-77
2022/07/16 00:53:47;;;;;;;4.38;0.40;;;;;;;31.39;29.14;101064.97;4875657;29;20048;-76
2022/07/16 00:56:18;;;;;;;0.85;0.40;;;;;;;31.32;30.10;101068.91;4862189;29;20046;-76
2022/07/16 00:58:47;;;;;;;;;;;;;;;31.32;29.26;101066.25;4870525;29;20048;-75
2022/07/16 01:01:16;;;;;;;1.40;0.45;;;;;;;31.31;30.34;101069.84;4866788;29;19931;-75
2022/07/16 01:03:47;;;;;;;1.05;0.38;;;;;;;31.32;29.76;101058.22;4865789;29;20052;-76
2022/07/16 01:06:16;;;;;;;1.02;0.30;;;;;;;31.34;30.14;101072.38;4866856;29;20061;-79
2022/07/16 01:08:49;;;;;;;1.25;0.50;;;;;;;31.28;28.71;101059.31;4874303;29;20142;-77
2022/07/16 01:14:39;;;;;;;2.22;0.40;;;;;;;30.99;30.02;101061.69;4864464;29;20060;-75
2022/07/16 01:17:14;;;;;;;0.73;0.40;;;;;;;30.87;29.84;101065.84;4875835;29;20063;-76
2022/07/16 01:19:44;;;;;;;1.45;0.25;;;;;;;30.80;28.86;101061.72;4872141;29;20057;-76
2022/07/16 01:22:19;;;;;;;0.32;0.20;;;;;;;30.83;29.33;101064.28;4874480;29;20061;-76
2022/07/16 01:24:50;;;;;;;1.35;0.15;;;;;;;30.88;28.94;101064.06;4871424;29;20554;-78
2022/07/16 01:27:20;;;;;;;1.33;0.30;;;;;;;30.81;29.15;101073.28;4860889;29;20385;-75
2022/07/16 01:29:48;;;;;;;1.38;0.32;;;;;;;30.66;29.35;101059.75;4869148;29;20053;-77
2022/07/16 01:32:17;;;;;;;0.68;0.40;;;;;;;30.63;29.31;101059.91;4872801;29;20499;-76
2022/07/16 01:34:45;;;;;;;0.50;0.35;;;;;;;30.54;29.95;101047.03;4862737;29;20619;-77
2022/07/16 01:37:14;;;;;;;0.43;0.22;;;;;;;30.55;30.33;101064.75;4873006;29;20052;-75
2022/07/16 01:39:43;;;;;;;0.50;0.32;;;;;;;30.48;29.75;101066.00;4866831;29;20056;-76
2022/07/16 01:42:13;;;;;;;0.73;0.35;;;;;;;30.48;30.58;101066.84;4869633;29;20057;-75
2022/07/16 01:44:42;;;;;;;0.52;0.28;;;;;;;30.50;30.48;101060.59;4874870;29;20060;-76
2022/07/16 01:47:13;;;;;;;2.33;0.38;;;;;;;30.51;29.45;101055.16;4870002;29;20216;-74
2022/07/16 01:49:42;;;;;;;1.55;0.30;;;;;;;30.48;29.55;101058.00;4874404;29;20136;-75
2022/07/16 01:52:12;;;;;;;3.72;0.77;;;;;;;30.47;30.50;101058.94;4875593;29;20491;-74
2022/07/16 01:54:44;;;;;;;1.10;0.20;;;;;;;30.44;29.94;101049.28;4872960;29;20455;-74
2022/07/16 01:57:15;;;;;;;0.52;0.52;;;;;;;30.42;30.73;101055.63;4876677;29;20049;-74
2022/07/16 01:59:44;;;;;;;4.60;0.40;;;;;;;30.39;30.35;101045.09;4875899;29;20978;-74
2022/07/16 02:02:13;;;;;;;0.20;0.20;;;;;;;30.38;30.83;101048.72;4872710;29;20057;-74
2022/07/16 02:04:43;;;;;;;1.40;0.20;;;;;;;30.34;30.36;101052.47;4873475;29;20057;-73
2022/07/16 02:07:11;;;;;;;0.77;0.30;;;;;;;30.31;30.42;101047.28;4869432;29;20487;-74
2022/07/16 02:09:40;;;;;;;1.17;0.20;;;;;;;30.26;29.91;101045.69;4866209;29;20076;-73
2022/07/16 02:12:09;;;;;;;0.40;0.30;;;;;;;30.18;30.60;101039.81;4873929;29;20108;-72
2022/07/16 02:14:39;;;;;;;1.02;0.30;;;;;;;30.13;31.25;101041.84;4863964;28;20061;-73
2022/07/16 02:17:08;;;;;;;2.55;0.40;;;;;;;30.12;31.74;101042.78;4861789;29;20512;-73
2022/07/16 02:19:36;;;;;;;0.45;0.30;;;;;;;30.04;31.79;101042.28;4853796;29;20050;-74
2022/07/16 02:22:06;;;;;;;0.40;0.40;;;;;;;29.90;31.77;101042.09;4853266;29;20053;-73
2022/07/16 02:24:35;;;;;;;2.28;0.55;;;;;;;29.74;32.27;101034.78;4856138;29;20049;-73
2022/07/16 02:27:03;;;;;;;1.13;0.22;;;;;;;29.69;32.20;101036.81;4855025;29;20053;-74
2022/07/16 02:29:32;;;;;;;0.30;0.30;;;;;;;29.68;32.35;101032.38;4850791;29;20113;-73
2022/07/16 02:32:02;;;;;;;0.60;0.28;;;;;;;29.66;32.75;101039.56;4854356;29;20667;-74
2022/07/16 02:34:31;;;;;;;0.85;0.40;;;;;;;29.54;32.70;101041.00;4850804;29;20055;-73
2022/07/16 02:36:59;;;;;;;1.67;0.38;;;;;;;29.48;32.03;101045.72;4854319;29;20056;-73
2022/07/16 02:39:28;;;;;;;1.08;0.47;;;;;;;29.35;32.30;101040.09;4853816;29;20049;-77
2022/07/16 02:41:56;;;;;;;0.43;0.40;;;;;;;29.23;32.30;101042.38;4854194;29;20057;-77
2022/07/16 02:44:25;;;;;;;1.65;0.40;;;;;;;29.18;32.14;101043.47;4851901;29;20066;-75
2022/07/16 02:46:53;;;;;;;0.38;0.30;;;;;;;29.12;32.02;101039.31;4855771;29;20057;-76
2022/07/16 02:49:23;;;;;;;0.55;0.40;;;;;;;29.04;32.58;101047.56;4860095;29;20053;-75
2022/07/16 02:51:52;;;;;;;0.30;0.13;;;;;;;28.93;32.16;101047.19;4856611;29;20053;-74
2022/07/16 02:54:20;;;;;;;0.68;0.30;;;;;;;28.90;32.52;101049.09;4861198;29;20049;-75
2022/07/16 02:56:49;;;;;;;3.40;0.43;;;;;;;28.87;32.32;101043.94;4861901;29;20070;-74
2022/07/16 02:59:17;;;;;;;0.22;0.15;;;;;;;28.85;32.43;101051.97;4861870;29;20053;-74
2022/07/16 03:01:46;;;;;;;1.52;0.40;;;;;;;28.75;32.78;101046.16;4870654;29;20496;-75
2022/07/16 03:04:14;;;;;;;0.10;0.10;;;;;;;28.72;32.55;101042.75;4860330;29;20064;-75
2022/07/16 03:06:45;;;;;;;1.25;0.10;;;;;;;28.70;32.32;101047.28;4857503;29;20058;-75
2022/07/16 03:09:13;;;;;;;0.65;0.30;;;;;;;28.65;32.22;101049.28;4854480;29;20057;-78
2022/07/16 03:11:42;;;;;;;0.40;0.20;;;;;;;28.58;32.71;101044.19;4860808;29;20064;-75
2022/07/16 03:14:10;;;;;;;1.65;0.20;;;;;;;28.52;33.20;101049.78;4872623;29;20083;-75
2022/07/16 03:16:39;;;;;;;0.60;0.25;;;;;;;28.49;33.18;101047.22;4870869;29;20153;-75
2022/07/16 03:19:08;;;;;;;0.40;0.28;;;;;;;28.44;33.02;101050.97;4878483;29;20090;-73
2022/07/16 03:21:36;;;;;;;0.45;0.25;;;;;;;28.37;32.97;101051.22;4883949;29;20080;-74
2022/07/16 03:24:07;;;;;;;2.75;0.20;;;;;;;28.32;33.48;101049.69;4869603;29;20499;-73
2022/07/16 03:26:36;;;;;;;1.30;0.40;;;;;;;28.28;33.73;101056.06;4871546;29;20519;-73
2022/07/16 03:29:04;;;;;;;0.82;0.30;;;;;;;28.20;34.34;101061.69;4864649;29;20053;-75
2022/07/16 03:31:33;;;;;;;0.30;0.20;;;;;;;28.07;34.26;101058.63;4865745;29;20112;-73
2022/07/16 03:34:01;;;;;;;0.75;0.25;;;;;;;27.98;34.81;101073.13;4879646;29;20196;-75
2022/07/16 03:36:30;;;;;;;1.30;0.30;;;;;;;27.90;35.17;101069.91;4894163;29;20057;-74
2022/07/16 03:39:03;;;;;;;0.38;0.10;;;;;;;27.83;35.46;101067.50;4871396;29;20053;-74
2022/07/16 03:41:34;;;;;;;0.30;0.20;;;;;;;27.72;36.79;101068.78;4875211;29;20058;-75
2022/07/16 03:44:04;;;;;;;2.55;0.30;;;;;;;27.63;36.62;101068.25;4872524;29;20495;-74
2022/07/16 03:46:32;;;;;;;0.98;0.30;;;;;;;27.54;36.44;101072.09;4879905;29;20049;-74
2022/07/16 03:49:01;;;;;;;0.30;0.20;;;;;;;27.45;37.21;101069.78;4877053;29;20461;-75
2022/07/16 03:51:30;;;;;;;0.80;0.30;;;;;;;27.35;37.82;101066.56;4871954;29;20049;-73
2022/07/16 03:53:59;;;;;;;0.30;0.30;;;;;;;27.28;38.35;101073.91;4868209;29;20053;-74
2022/07/16 03:56:28;;;;;;;0.50;0.32;;;;;;;27.22;38.57;101075.91;4867577;29;20164;-75
2022/07/16 03:58:58;;;;;;;1.35;0.25;;;;;;;27.16;39.16;101076.94;4874639;29;20115;-75
2022/07/16 04:01:26;;;;;;;0.65;0.30;;;;;;;27.08;39.24;101084.31;4871669;29;20097;-74
2022/07/16 04:03:55;;;;;;;2.20;0.30;;;;;;;27.02;39.70;101087.19;4874699;29;20080;-76
2022/07/16 04:06:24;;;;;;;0.77;0.30;;;;;;;26.95;41.86;101092.69;4883397;29;20478;-76
2022/07/16 04:08:52;;;;;;;0.38;0.20;;;;;;;26.86;41.35;101098.28;4874210;29;20057;-76
2022/07/16 04:11:21;;;;;;;0.30;0.25;;;;;;;26.71;41.13;101101.47;4875520;29;20500;-76
2022/07/16 04:13:49;;;;;;;1.90;0.38;;;;;;;26.59;41.65;101104.50;4864682;29;20049;-74
2022/07/16 04:16:19;;;;;;;0.47;0.35;;;;;;;26.41;41.92;101096.19;4864546;29;20053;-76
2022/07/16 04:18:48;;;;;;;0.88;0.38;;;;;;;26.20;41.92;101102.13;4853325;29;20045;-77
2022/07/16 04:21:17;;;;;;;0.75;0.25;;;;;;;25.98;42.54;101101.91;4857333;29;20061;-75
2022/07/16 04:23:45;;;;;;;1.70;0.30;;;;;;;25.85;43.46;101106.66;4850139;29;20054;-76
2022/07/16 04:26:14;;;;;;;0.70;0.30;;;;;;;25.76;43.24;101112.22;4849751;29;20050;-75
2022/07/16 04:28:43;;;;;;;0.40;0.30;;;;;;;25.68;43.73;101117.72;4855162;29;20060;-73
2022/07/16 04:31:11;;;;;;;1.25;0.30;;;;;;;25.60;44.41;101117.94;4860049;29;20641;-73
2022/07/16 04:33:42;;;;;;;0.80;0.35;;;;;;;25.52;44.70;101127.88;4858518;29;20120;-74
2022/07/16 04:36:11;;;;;;;0.47;0.30;;;;;;;25.42;45.35;101132.53;4870125;29;20049;-73
2022/07/16 04:38:39;;;;;;;0.57;0.40;;;;;;;25.34;45.20;101131.00;4860365;29;20053;-74
2022/07/16 04:41:08;;;;;;;1.10;0.50;;;;;;;25.24;46.24;101141.84;4862341;29;20089;-74
2022/07/16 04:43:37;;;;;;;0.32;0.30;;;;;;;25.14;46.21;101139.41;4854033;29;20050;-74
2022/07/16 04:46:05;;;;;;;3.00;0.40;;;;;;;25.04;45.78;101139.66;4861506;29;20128;-75
2022/07/16 04:48:34;;;;;;;0.40;0.30;;;;;;;24.95;46.21;101146.94;4856087;29;20049;-74
2022/07/16 04:51:04;;;;;;;1.70;0.40;;;;;;;24.88;46.68;101138.28;4865895;29;20049;-74
2022/07/16 04:53:33;;;;;;;2.17;0.45;;;;;;;24.79;47.18;101144.66;4863318;29;20107;-75
2022/07/16 04:56:01;;;;;;;0.20;0.20;;;;;;;24.71;47.39;101145.75;4853988;29;20196;-75
2022/07/16 04:58:30;;;;;;;0.40;0.40;;;;;;;24.62;47.78;101146.81;4865945;29;20567;-75
2022/07/16 05:00:59;;;;;;;1.48;0.40;;;;;;;24.51;49.18;101144.44;4863615;29;20113;-75
2022/07/16 05:03:27;;;;;;;0.70;0.35;;;;;;;24.42;48.29;101148.09;4856473;29;20214;-75
2022/07/16 05:05:56;;;;;;;0.77;0.52;;;;;;;24.33;48.80;101158.00;4863393;29;20049;-75
2022/07/16 05:08:26;;;;;;;1.40;0.40;;;;;;;24.25;49.46;101152.88;4854802;29;20137;-74
2022/07/16 05:10:54;;;;;;;0.90;0.50;;;;;;;24.16;49.72;101156.56;4865249;29;20110;-77
2022/07/16 05:13:23;;;;;;;3.65;0.52;;;;;;;24.06;50.50;101162.09;4863283;29;20730;-76
2022/07/16 05:15:51;;;;;;;4.97;0.90;;;;;;;23.88;49.49;101148.31;4853647;29;20504;-76
2022/07/16 05:18:20;;;;;;;4.03;0.57;;;;;;;23.78;50.61;101158.22;4857575;29;20480;-75
2022/07/16 05:20:48;;;;;;;2.15;0.40;;;;;;;23.70;51.38;101156.56;4854079;29;20053;-77
2022/07/16 05:23:17;;;;;;;1.67;0.55;;;;;;;23.61;52.24;101158.47;4859029;29;20049;-75
2022/07/16 05:25:47;;;;;;;2.53;1.08;;;;;;;23.55;51.66;101165.66;4857242;29;20056;-75
2022/07/16 05:28:16;;;;;;;1.83;0.93;;;;;;;23.48;52.47;101159.63;4859899;29;20061;-75
2022/07/16 05:30:44;;;;;;;2.60;1.17;;;;;;;23.45;52.78;101158.78;4845784;29;20117;-75
2022/07/16 05:33:13;;;;;;;1.23;0.40;;;;;;;23.33;52.51;101157.22;4856935;29;20102;-76
2022/07/16 05:35:41;;;;;;;2.70;1.05;;;;;;;23.22;53.31;101170.59;4866239;29;20520;-75
2022/07/16 05:38:10;;;;;;;1.92;1.00;;;;;;;23.14;53.17;101162.81;4849817;29;20045;-75
2022/07/16 05:40:39;;;;;;;1.38;0.73;;;;;;;23.07;53.37;101169.09;4855915;29;20053;-76
2022/07/16 05:43:09;;;;;;;3.90;0.80;;;;;;;23.00;53.60;101167.44;4860814;29;20046;-76
2022/07/16 05:45:38;;;;;;;0.82;0.65;;;;;;;22.95;53.31;101167.47;4859225;29;20053;-76
2022/07/16 05:48:07;;;;;;;0.90;0.55;;;;;;;22.83;54.55;101172.06;4844709;29;20050;-75
2022/07/16 05:50:35;;;;;;;4.20;0.70;;;;;;;22.75;56.32;101175.69;4845232;29;20061;-76
2022/07/16 05:53:04;;;;;;;0.63;0.40;;;;;;;22.69;56.47;101181.03;4854096;29;20049;-75
2022/07/16 05:55:32;;;;;;;3.00;0.60;;;;;;;22.63;56.96;101173.22;4849840;29;20123;-76
2022/07/16 05:58:01;;;;;;;0.60;0.25;;;;;;;22.56;56.77;101183.00;4857599;29;20102;-76
2022/07/16 06:00:31;;;;;;;0.73;0.43;;;;;;;22.50;56.93;101182.19;4867051;29;20048;-76
2022/07/16 06:03:00;;;;;;;1.15;0.38;;;;;;;22.43;56.39;101183.16;4853905;29;20046;-77
2022/07/16 06:05:28;;;;;;;2.47;0.50;;;;;;;22.31;57.11;101181.53;4851929;29;20049;-77
2022/07/16 06:07:57;;;;;;;1.77;0.35;;;;;;;22.20;57.12;101180.78;4855805;29;20052;-76
2022/07/16 06:10:25;;;;;;;1.85;0.40;;;;;;;22.12;57.39;101175.56;4857024;29;20068;-77
2022/07/16 06:12:54;;;;;;;2.50;0.50;;;;;;;22.00;58.63;101175.72;4852882;29;20136;-77
2022/07/16 06:15:22;;;;;;;0.80;0.20;;;;;;;21.83;58.70;101179.44;4866272;29;20054;-77
2022/07/16 06:17:52;;;;;;;0.47;0.30;;;;;;;21.69;59.69;101176.03;4867307;29;20054;-77
2022/07/16 06:20:21;;;;;;;0.95;0.40;;;;;;;21.56;61.07;101174.44;4871513;29;20049;-77
2022/07/16 06:22:54;;;;;;;1.08;0.40;;;;;;;21.48;60.86;101180.59;4875431;29;20044;-77
2022/07/16 06:25:22;;;;;;;0.10;0.10;;;;;;;21.43;60.94;101179.78;4866440;29;20053;-76
2022/07/16 06:27:51;;;;;;;0.10;0.10;;;;;;;21.36;61.27;101172.78;4877990;29;20100;-77
2022/07/16 06:30:20;;;;;;;0.40;0.30;;;;;;;21.31;61.67;101178.09;4883208;29;20548;-76
2022/07/16 06:32:48;;;;;;;0.20;0.20;;;;;;;21.31;61.80;101183.34;4874056;29;20052;-76
2022/07/16 06:35:18;;;;;;;0.82;0.35;;;;;;;21.31;62.02;101187.75;4879241;29;20057;-75
2022/07/16 06:37:47;;;;;;;0.47;0.17;;;;;;;21.29;62.23;101182.50;4878108;29;20053;-75
2022/07/16 06:40:15;;;;;;;0.35;0.10;;;;;;;21.27;62.17;101183.41;4869834;29;20102;-75
2022/07/16 06:42:44;;;;;;;0.32;0.20;;;;;;;21.18;63.08;101183.47;4873669;29;20495;-75
2022/07/16 06:45:13;;;;;;;0.10;0.10;;;;;;;21.05;62.84;101178.31;4872696;29;20547;-76
2022/07/16 06:47:41;;;;;;;0.30;0.10;;;;;;;20.99;62.81;101173.06;4866218;29;20045;-75
2022/07/16 06:50:10;;;;;;;1.20;0.20;;;;;;;20.89;63.44;101167.00;4872279;29;20528;-75
2022/07/16 06:52:41;;;;;;;0.20;0.20;;;;;;;20.84;63.40;101179.28;4875074;29;20392;-75
2022/07/16 06:55:10;;;;;;;0.17;0.17;;;;;;;20.82;63.56;101174.94;4870886;29;20049;-75
2022/07/16 06:57:38;;;;;;;0.30;0.20;;;;;;;20.79;64.18;101175.81;4874090;29;20049;-75
2022/07/16 07:00:08;;;;;;;0.35;0.17;;;;;;;20.73;64.17;101174.97;4865439;29;20117;-75
2022/07/16 07:02:36;;;;;;;0.38;0.20;;;;;;;20.66;64.60;101176.78;4866349;29;20491;-75
2022/07/16 07:05:06;;;;;;;0.20;0.20;;;;;;;20.55;65.36;101176.81;4875902;29;20041;-75
2022/07/16 07:07:34;;;;;;;0.20;0.10;;;;;;;20.45;66.23;101175.09;4878079;29;20503;-75
2022/07/16 07:10:05;;;;;;;1.35;0.15;;;;;;;20.36;66.43;101177.78;4865484;29;20065;-76
2022/07/16 07:12:35;;;;;;;0.80;0.38;;;;;;;20.34;66.55;101171.63;4874473;29;20053;-75
2022/07/16 07:15:04;;;;;;;0.30;0.20;;;;;;;20.27;67.45;101161.19;4874754;28;20061;-75
2022/07/16 07:17:32;;;;;;;2.35;0.30;;;;;;;20.39;66.83;101175.16;4867148;29;20081;-75
2022/07/16 07:20:01;;;;;;;0.28;0.20;;;;;;;20.40;66.89;101174.25;4873026;29;20419;-76
2022/07/16 07:22:29;;;;;;;1.00;0.30;;;;;;;20.40;66.67;101169.00;4881697;29;20057;-76
2022/07/16 07:24:58;;;;;;;0.70;0.20;;;;;;;20.38;66.31;101161.09;4867839;29;20081;-76
2022/07/16 07:27:31;;;;;;;1.45;0.20;;;;;;;20.37;66.24;101167.25;4874485;29;20114;-75
2022/07/16 07:29:59;;;;;;;0.85;0.40;;;;;;;20.36;66.15;101169.88;4866283;29;20566;-75
2022/07/16 07:32:28;;;;;;;0.82;0.20;;;;;;;20.33;66.50;101164.66;4875017;29;20045;-75
2022/07/16 07:34:56;;;;;;;0.08;0.08;;;;;;;20.30;66.24;101171.66;4883804;29;20057;-76
2022/07/16 07:37:25;;;;;;;0.40;0.20;;;;;;;20.26;66.08;101175.19;4870051;29;20049;-76
2022/07/16 07:39:53;;;;;;;0.17;0.17;;;;;;;20.16;66.30;101168.22;4879600;29;20056;-75
2022/07/16 07:42:22;;;;;;;0.43;0.28;;;;;;;20.11;67.34;101175.22;4865665;29;20046;-75
2022/07/16 07:44:53;;;;;;;0.52;0.25;;;;;;;20.03;67.68;101172.63;4871964;29;20091;-75
2022/07/16 07:47:21;;;;;;;0.55;0.10;;;;;;;19.97;68.72;101177.03;4872162;29;20053;-76
2022/07/16 07:49:50;;;;;;;0.17;0.17;;;;;;;19.87;69.58;101178.81;4870319;29;20057;-75
2022/07/16 07:52:18;;;;;;;0.40;0.20;;;;;;;19.76;69.54;101184.06;4880865;29;20053;-75
2022/07/16 07:55:01;;;;;;;0.40;0.20;;;;;;;19.70;69.73;101183.19;4877086;29;20045;-75
2022/07/16 07:57:29;;;;;;;0.52;0.20;;;;;;;19.62;70.51;101191.06;4876955;29;20056;-75
2022/07/16 07:59:59;;;;;;;0.68;0.20;;;;;;;19.59;70.59;101188.44;4879349;29;20487;-75
2022/07/16 08:02:28;;;;;;;2.35;0.30;;;;;;;19.57;70.86;101193.69;4872651;29;20102;-75
2022/07/16 08:04:56;;;;;;;1.05;0.38;;;;;;;19.53;71.13;101191.94;4872395;29;20113;-75
2022/07/16 08:07:25;;;;;;;0.63;0.20;;;;;;;19.50;71.24;101191.06;4884648;29;20053;-75
2022/07/16 08:09:53;;;;;;;1.27;0.25;;;;;;;19.46;71.25;101193.69;4873075;29;20057;-75
2022/07/16 08:12:22;;;;;;;1.25;0.17;;;;;;;19.48;71.09;101198.06;4867673;29;20523;-75
2022/07/16 08:14:50;;;;;;;0.68;0.30;;;;;;;19.48;71.85;101203.31;4869553;29;20062;-75
2022/07/16 08:17:21;;;;;;;2.17;0.35;;;;;;;19.42;72.32;101204.19;4863751;29;20081;-76
2022/07/16 08:19:49;;;;;;;0.93;0.10;;;;;;;19.40;71.78;101204.19;4864669;29;20049;-75
2022/07/16 08:22:18;;;;;;;0.40;0.20;;;;;;;19.42;71.63;101215.56;4861579;29;20060;-75
2022/07/16 08:27:32;;;;;;;0.60;0.30;;;;;;;19.43;71.94;101212.06;4870411;29;20063;-75
2022/07/16 08:30:00;;;;;;;0.85;0.35;;;;;;;19.41;71.69;101218.19;4860462;29;20062;-74
2022/07/16 08:32:30;;;;;;;0.60;0.30;;;;;;;19.35;72.96;101218.16;4858512;29;20049;-74
2022/07/16 08:34:59;;;;;;;0.30;0.30;;;;;;;19.30;72.71;101218.16;4852033;29;20473;-75
2022/07/16 08:37:36;;;;;;;0.50;0.20;;;;;;;19.25;72.56;101215.53;4851172;29;20049;-75
2022/07/16 08:40:06;;;;;;;1.25;0.32;;;;;;;19.30;72.37;101220.78;4850118;29;20089;-75
2022/07/16 08:42:36;;;;;;;0.45;0.30;;;;;;;19.27;71.88;101220.81;4844288;29;20053;-74
2022/07/16 08:45:07;;;;;;;0.75;0.13;;;;;;;19.27;72.25;101225.19;4844227;29;20058;-74
2022/07/16 08:47:38;;;;;;;0.90;0.30;;;;;;;19.22;73.50;101228.66;4855875;29;20508;-75
2022/07/16 08:50:10;;;;;;;0.52;0.32;;;;;;;19.14;74.42;101226.91;4847895;29;20049;-75
2022/07/16 08:52:42;;;;;;;0.68;0.38;;;;;;;19.06;74.21;101234.75;4845367;29;20072;-75
2022/07/16 08:55:12;;;;;;;1.23;0.17;;;;;;;19.04;74.31;101231.25;4849228;29;20058;-74
2022/07/16 08:57:41;;;;;;;0.50;0.20;;;;;;;19.04;73.97;101229.50;4848685;29;20046;-74
2022/07/16 09:00:12;;;;;;;0.22;0.22;;;;;;;19.04;74.62;101228.63;4850020;29;20091;-75
2022/07/16 09:02:42;;;;;;;0.30;0.20;;;;;;;19.01;73.68;101226.88;4846551;29;20539;-74
2022/07/16 09:05:11;;;;;;;0.82;0.35;;;;;;;18.93;76.02;101225.97;4844018;29;20057;-74
2022/07/16 09:07:40;;;;;;;0.25;0.25;;;;;;;18.84;75.89;101215.47;4857882;29;20049;-75
2022/07/16 09:10:10;;;;;;;0.25;0.15;;;;;;;18.83;75.61;101218.97;4860273;29;20485;-75
2022/07/16 09:12:41;;;;;;;0.25;0.20;;;;;;;18.83;75.63;101218.97;4860529;29;20517;-74
2022/07/16 09:15:32;;;;;;;0.70;0.20;;;;;;;18.81;75.54;101220.72;4866235;29;20082;-74
2022/07/16 09:18:17;;;;;;;1.08;0.20;;;;;;;18.75;76.24;101210.16;4858894;29;20050;-74
2022/07/16 09:20:49;;;;;;;1.20;0.20;;;;;;;18.74;75.65;101216.28;4865200;29;20062;-74
2022/07/16 09:23:29;;;;;;;0.37;0.30;;;;;;;18.70;76.32;101222.38;4859273;29;20049;-74
2022/07/16 09:26:00;;;;;;;0.60;0.30;;;;;;;18.65;75.95;101218.88;4858091;29;20293;-74
2022/07/16 09:28:42;;;;;;;0.43;0.20;;;;;;;18.61;75.59;101216.22;4848003;29;20493;-74
2022/07/16 09:31:11;;;;;;;0.93;0.30;;;;;;;18.59;76.15;101219.72;4842007;29;20057;-75
2022/07/16 09:33:41;;;;;;;0.32;0.30;;;;;;;18.52;77.76;101217.94;4854661;29;20065;-74
2022/07/16 09:36:12;;;;;;;0.60;0.25;;;;;;;18.43;78.05;101224.00;4844992;29;20049;-74
2022/07/16 09:38:48;;;;;;;0.35;0.22;;;;;;;18.36;77.55;101212.63;4855260;29;20932;-74
2022/07/16 09:41:17;;;;;;;0.30;0.20;;;;;;;18.41;76.97;101225.75;4847146;29;20060;-74
2022/07/16 09:43:54;;;;;;;1.02;0.25;;;;;;;18.41;77.13;101223.13;4856835;29;20049;-75
2022/07/16 09:46:24;;;;;;;0.38;0.20;;;;;;;18.43;76.03;101224.00;4856258;29;20056;-75
2022/07/16 09:48:55;;;;;;;0.50;0.30;;;;;;;18.43;76.26;101224.00;4854054;29;20120;-75
2022/07/16 09:51:25;;;;;;;0.47;0.32;;;;;;;18.41;76.79;101218.75;4845383;29;20114;-75
2022/07/16 09:53:56;;;;;;;0.28;0.20;;;;;;;18.40;77.34;101216.16;4845048;29;20057;-74
2022/07/16 09:56:26;;;;;;;1.23;0.38;;;;;;;18.39;77.33;101217.00;4843687;29;20513;-74
2022/07/16 09:58:56;;;;;;;0.22;0.20;;;;;;;18.37;77.65;101216.13;4855589;29;20057;-74
2022/07/16 10:01:26;;;;;;;1.15;0.30;;;;;;;18.36;77.59;101217.00;4850728;29;20053;-74
2022/07/16 10:03:56;;;;;;;0.25;0.20;;;;;;;18.33;78.03;101212.63;4851441;29;20053;-75
2022/07/16 10:06:24;;;;;;;0.17;0.17;;;;;;;18.32;77.95;101220.47;4865243;29;20492;-75
2022/07/16 10:08:53;;;;;;;0.40;0.30;;;;;;;18.28;78.06;101223.94;4851401;29;20515;-75
2022/07/16 10:11:22;;;;;;;0.68;0.35;;;;;;;18.20;78.36;101232.63;4852239;29;20081;-73
2022/07/16 10:14:04;;;;;;;0.60;0.32;;;;;;;18.16;77.87;101223.03;4850969;28;20535;-75
2022/07/16 10:16:40;;;;;;;0.45;0.30;;;;;;;18.15;78.43;101229.09;4863496;29;20118;-75
2022/07/16 10:19:12;;;;;;;0.68;0.38;;;;;;;18.14;78.58;101226.47;4871856;29;20044;-75
2022/07/16 10:21:41;;;;;;;0.30;0.20;;;;;;;18.00;79.87;101218.53;4871319;29;20538;-75
2022/07/16 10:24:13;;;;;;;1.17;0.22;;;;;;;18.03;79.11;101239.53;4878811;29;20801;-75
2022/07/16 10:26:42;;;;;;;0.55;0.20;;;;;;;18.02;78.73;101239.50;4883681;29;20128;-75
2022/07/16 10:29:11;;;;;;;0.88;0.40;;;;;;;18.01;79.50;101241.25;4875291;29;20056;-75
2022/07/16 10:32:26;;;;;;;1.33;0.20;;;;;;;18.00;79.82;101245.63;4873260;29;20059;-75
2022/07/16 10:34:36;;;;;;;0.93;0.40;;;;;;;17.92;80.87;101243.81;4880262;29;20084;-74
2022/07/16 10:37:06;;;;;;;0.40;0.30;;;;;;;17.85;81.69;101255.97;4878084;29;20499;-75
2022/07/16 10:39:35;;;;;;;0.75;0.40;;;;;;;17.78;82.11;101257.63;4873386;29;20049;-75
2022/07/16 10:42:06;;;;;;;0.60;0.40;;;;;;;17.77;81.40;101253.28;4865528;29;20050;-75
2022/07/16 10:44:48;;;;;;;0.52;0.30;;;;;;;17.82;81.82;101250.72;4868471;29;20499;-76
2022/07/16 10:47:17;;;;;;;;;;;;;;;17.86;82.11;101256.84;4878037;29;20061;-76
2022/07/16 10:49:47;;;;;;;2.67;0.30;;;;;;;17.84;81.30;101248.09;4885157;29;19963;-75
2022/07/16 10:52:18;;;;;;;1.77;0.30;;;;;;;17.93;81.59;101256.00;4879170;29;20060;-75
2022/07/16 10:55:04;;;;;;;0.30;0.30;;;;;;;17.98;81.97;101256.91;4864451;29;20053;-75
2022/07/16 10:57:36;;;;;;;0.43;0.20;;;;;;;17.98;81.63;101252.59;4867731;29;20100;-75
2022/07/16 11:00:06;;;;;;;;;;;;;;;18.02;81.45;101252.59;4878098;29;20058;-75
2022/07/16 11:02:40;;;;;;;0.43;0.20;;;;;;;18.03;81.66;101251.72;4885270;29;19931;-75
2022/07/16 11:05:11;;;;;;;1.85;0.30;;;;;;;18.02;81.80;101247.34;4877136;29;20105;-75
2022/07/16 11:07:39;;;;;;;2.83;0.20;;;;;;;18.03;82.17;101252.63;4874634;29;20049;-75
2022/07/16 11:10:09;;;;;;;0.57;0.40;;;;;;;18.03;83.06;101252.63;4880888;29;20052;-75
2022/07/16 11:12:37;;;;;;;2.28;0.30;;;;;;;18.01;83.15;101251.72;4873290;29;20061;-75
2022/07/16 11:15:07;;;;;;;0.28;0.20;;;;;;;17.95;83.94;101252.53;4870913;28;20057;-76
2022/07/16 11:17:35;;;;;;;0.30;0.20;;;;;;;17.92;83.84;101256.91;4875777;29;20045;-75
2022/07/16 11:20:08;;;;;;;0.60;0.30;;;;;;;17.89;84.86;101247.28;4863138;29;20506;-75
2022/07/16 11:22:39;;;;;;;0.80;0.40;;;;;;;17.85;84.06;101239.41;4888077;29;20052;-75
2022/07/16 11:25:08;;;;;;;0.57;0.40;;;;;;;17.97;84.30;101249.94;4879098;29;20495;-76
2022/07/16 11:27:38;;;;;;;0.75;0.40;;;;;;;18.02;83.97;101249.97;4868574;29;20052;-75
2022/07/16 11:30:09;;;;;;;0.68;0.30;;;;;;;18.04;83.88;101251.72;4879684;29;20112;-75
2022/07/16 11:32:43;;;;;;;0.65;0.32;;;;;;;18.07;84.30;101249.13;4881132;29;20127;-75
2022/07/16 11:35:12;;;;;;;1.95;0.30;;;;;;;18.09;83.85;101249.16;4883504;29;20046;-75
2022/07/16 11:37:52;;;;;;;0.50;0.40;;;;;;;18.11;83.68;101250.91;4879318;29;20464;-75
2022/07/16 11:40:22;;;;;;;1.60;0.47;;;;;;;18.15;83.96;101259.66;4868396;29;20059;-75
2022/07/16 11:43:00;;;;;;;0.77;0.30;;;;;;;18.14;84.74;101258.81;4872447;29;20049;-75
2022/07/16 11:45:29;;;;;;;0.30;0.30;;;;;;;18.13;84.35;101251.78;4868241;29;20522;-75
2022/07/16 11:48:11;;;;;;;0.65;0.40;;;;;;;18.12;85.04;101250.06;4874256;29;20052;-75
2022/07/16 11:50:40;;;;;;;0.73;0.35;;;;;;;18.14;85.13;101252.66;4879444;29;20064;-74